Time;durP1;ratioP1;P1;durP2;ratioP2;P2;SDS_P1;SDS_P2;PMS_P1;PMS_P2;Temp;Humidity;BMP_temperature;BMP_pressure;BME280_temperature;BME280_humidity;BME280_pressure;Samples;Min_cycle;Max_cycle;Signal;HPM_P1;HPM_P2
2022/12/11 07:06:56;;;;;;;35.65;17.88;;;-1.00;99.90;;;;;;5062877;24;20094;-76
2022/12/11 07:09:23;;;;;;;39.17;19.70;;;-1.00;99.90;;;;;;4848689;29;20146;-79
2022/12/11 07:11:51;;;;;;;43.65;19.45;;;-0.90;99.90;;;;;;4854061;29;20049;-78
2022/12/11 07:14:18;;;;;;;41.63;18.48;;;-0.90;99.90;;;;;;4849645;29;20076;-79
2022/12/11 07:16:45;;;;;;;41.65;20.38;;;-0.90;99.90;;;;;;4843725;29;20133;-78
2022/12/11 07:19:12;;;;;;;40.65;19.52;;;-0.90;99.90;;;;;;4839398;29;20499;-79
2022/12/11 07:21:39;;;;;;;36.08;18.08;;;-0.80;99.90;;;;;;4838947;29;20052;-79
2022/12/11 07:24:06;;;;;;;38.75;19.25;;;-0.80;99.90;;;;;;4841486;29;20058;-77
2022/12/11 07:26:33;;;;;;;41.63;19.40;;;-0.80;99.90;;;;;;4842075;29;20136;-77
2022/12/11 07:29:00;;;;;;;43.03;19.08;;;-0.70;99.90;;;;;;4843236;29;20141;-79
2022/12/11 07:31:28;;;;;;;34.60;16.13;;;-0.80;99.90;;;;;;4845849;29;20503;-76
2022/12/11 07:34:00;;;;;;;39.95;18.20;;;-0.80;99.90;;;;;;4842509;29;20054;-77
2022/12/11 07:36:28;;;;;;;34.67;17.02;;;-0.80;99.90;;;;;;4841191;29;20050;-78
2022/12/11 07:38:55;;;;;;;32.92;16.10;;;-0.80;99.90;;;;;;4842526;29;20136;-77
2022/12/11 07:41:22;;;;;;;35.75;16.33;;;-0.70;99.90;;;;;;4842421;29;20093;-77
2022/12/11 07:43:49;;;;;;;30.00;15.48;;;-0.80;99.90;;;;;;4842255;29;20050;-78
2022/12/11 07:46:19;;;;;;;33.42;16.25;;;-0.70;99.90;;;;;;4840836;29;20058;-77
2022/12/11 07:48:46;;;;;;;;;;;-0.70;99.90;;;;;;4841833;29;20061;-78
2022/12/11 07:51:25;;;;;;;31.33;15.10;;;-0.70;99.90;;;;;;4842502;29;20382;-77
2022/12/11 07:53:53;;;;;;;32.33;14.68;;;-0.70;99.90;;;;;;4839252;29;20129;-77
2022/12/11 07:56:21;;;;;;;27.98;15.27;;;-0.70;99.90;;;;;;4842264;29;20089;-78
2022/12/11 07:58:48;;;;;;;29.98;14.98;;;-0.80;99.90;;;;;;4842486;29;20133;-77
2022/12/11 08:01:16;;;;;;;34.63;14.60;;;-0.70;99.90;;;;;;4842853;29;20133;-77
2022/12/11 08:03:43;;;;;;;28.02;13.75;;;-0.80;99.90;;;;;;4836881;29;20054;-78
2022/12/11 08:06:10;;;;;;;29.83;14.32;;;-0.70;99.90;;;;;;4838347;29;20046;-77
2022/12/11 08:08:38;;;;;;;25.23;12.77;;;-0.70;99.90;;;;;;4834844;29;20046;-77
2022/12/11 08:11:07;;;;;;;28.05;14.60;;;-0.70;99.90;;;;;;4837348;29;20050;-77
2022/12/11 08:13:33;;;;;;;31.35;15.05;;;-0.70;99.90;;;;;;4834591;29;20518;-77
2022/12/11 08:16:05;;;;;;;32.15;15.20;;;-0.70;99.90;;;;;;4841463;29;20132;-77
2022/12/11 08:18:34;;;;;;;29.75;15.77;;;-0.70;99.90;;;;;;4838476;29;20544;-78
2022/12/11 08:21:05;;;;;;;30.48;14.13;;;-0.60;99.90;;;;;;4839075;29;20054;-77
2022/12/11 08:23:32;;;;;;;30.92;14.65;;;-0.60;99.90;;;;;;4841867;29;20054;-77
2022/12/11 08:26:02;;;;;;;28.85;14.23;;;-0.60;99.90;;;;;;4842954;29;20058;-78
2022/12/11 08:28:29;;;;;;;28.67;13.75;;;-0.60;99.90;;;;;;4843345;29;20110;-77
2022/12/11 08:30:56;;;;;;;25.08;13.50;;;-0.50;99.90;;;;;;4843220;29;20136;-78
2022/12/11 08:33:24;;;;;;;24.63;13.35;;;-0.50;99.90;;;;;;4843342;29;20085;-78
2022/12/11 08:35:51;;;;;;;24.48;13.32;;;-0.50;99.90;;;;;;4842708;29;20707;-77
2022/12/11 08:38:17;;;;;;;25.65;13.50;;;-0.50;99.90;;;;;;4844235;29;20079;-78
2022/12/11 08:40:51;;;;;;;26.88;14.10;;;-0.50;99.90;;;;;;4840897;29;20054;-77
2022/12/11 08:43:17;;;;;;;26.48;13.70;;;-0.40;99.90;;;;;;4841412;29;20060;-78
2022/12/11 08:45:45;;;;;;;27.52;14.00;;;-0.40;99.90;;;;;;4842792;29;20136;-78
2022/12/11 08:48:12;;;;;;;24.67;13.50;;;-0.40;99.90;;;;;;4844157;29;20541;-77
2022/12/11 08:50:39;;;;;;;25.80;13.25;;;-0.40;99.90;;;;;;4846922;29;20065;-79
2022/12/11 08:53:06;;;;;;;22.65;12.88;;;-0.30;99.90;;;;;;4851387;29;20600;-79
2022/12/11 08:55:33;;;;;;;26.70;13.02;;;-0.30;99.90;;;;;;4850471;29;20082;-79
2022/12/11 08:57:59;;;;;;;24.05;11.75;;;-0.30;99.90;;;;;;4849213;29;20548;-78
2022/12/11 09:00:26;;;;;;;22.23;11.75;;;-0.30;99.90;;;;;;4847727;29;20050;-79
2022/12/11 09:02:53;;;;;;;22.75;12.27;;;-0.30;99.90;;;;;;4841697;29;20050;-79
2022/12/11 09:05:19;;;;;;;28.73;13.18;;;-0.20;99.90;;;;;;4843706;29;20058;-78
2022/12/11 09:07:46;;;;;;;24.63;13.57;;;-0.10;99.90;;;;;;4840331;29;20088;-78
2022/12/11 09:10:13;;;;;;;28.35;12.65;;;-0.10;99.90;;;;;;4846912;29;20097;-79
2022/12/11 09:12:40;;;;;;;26.15;14.55;;;0.00;99.90;;;;;;4848125;29;20137;-80
2022/12/11 09:15:07;;;;;;;23.88;13.73;;;0.00;99.90;;;;;;4844361;29;20105;-78
2022/12/11 09:17:34;;;;;;;27.58;13.75;;;0.10;99.90;;;;;;4842787;29;20054;-77
2022/12/11 09:20:01;;;;;;;22.58;12.95;;;0.10;99.90;;;;;;4841651;29;20596;-79
2022/12/11 09:22:28;;;;;;;20.73;11.55;;;0.20;99.90;;;;;;4846507;29;20077;-80
2022/12/11 09:24:55;;;;;;;24.27;13.15;;;0.30;99.90;;;;;;4849736;29;20064;-78
2022/12/11 09:27:22;;;;;;;23.55;13.00;;;0.40;99.90;;;;;;4844784;29;20076;-79
2022/12/11 09:29:49;;;;;;;21.20;12.05;;;0.40;99.90;;;;;;4841989;29;20054;-76
2022/12/11 09:32:16;;;;;;;19.02;11.50;;;0.50;99.90;;;;;;4835758;29;20145;-76
2022/12/11 09:34:43;;;;;;;18.17;10.80;;;0.50;99.90;;;;;;4838301;29;20054;-78
2022/12/11 09:37:10;;;;;;;21.05;11.38;;;0.50;99.90;;;;;;4839295;29;20129;-78
2022/12/11 09:39:37;;;;;;;17.42;10.98;;;0.40;99.90;;;;;;4842618;29;20084;-76
2022/12/11 09:42:19;;;;;;;18.77;10.95;;;0.30;99.90;;;;;;4843018;29;20056;-77
2022/12/11 09:44:52;;;;;;;18.75;11.10;;;0.10;99.90;;;;;;4839677;29;20104;-77
2022/12/11 09:47:39;;;;;;;19.02;10.57;;;0.10;99.90;;;;;;4841215;29;20479;-77
2022/12/11 09:50:09;;;;;;;18.27;10.38;;;-0.10;99.90;;;;;;4845682;29;20068;-78
2022/12/11 09:52:51;;;;;;;19.33;10.85;;;-0.20;99.90;;;;;;4842455;29;20150;-77
2022/12/11 09:55:23;;;;;;;17.10;9.90;;;-0.30;99.90;;;;;;4841067;29;20077;-77
2022/12/11 09:58:19;;;;;;;17.92;10.05;;;-0.40;99.90;;;;;;4837652;29;20087;-77
2022/12/11 10:00:50;;;;;;;20.58;10.95;;;-0.30;99.90;;;;;;4834162;29;20133;-77
2022/12/11 10:03:39;;;;;;;22.88;11.20;;;-0.20;99.90;;;;;;4830945;29;20054;-78
2022/12/11 10:06:35;;;;;;;21.75;11.48;;;-0.10;99.90;;;;;;4851737;29;20987;-77
2022/12/11 10:09:26;;;;;;;18.17;10.73;;;-0.10;99.90;;;;;;4808341;29;20146;-77
2022/12/11 10:12:22;;;;;;;22.75;12.02;;;0.00;99.90;;;;;;4838418;29;20062;-77
2022/12/11 10:15:13;;;;;;;20.95;11.90;;;0.10;99.90;;;;;;4838061;29;20055;-77
2022/12/11 10:17:43;;;;;;;19.98;11.57;;;0.00;99.90;;;;;;4847313;29;20108;-78
2022/12/11 10:20:25;;;;;;;20.30;10.98;;;0.00;99.90;;;;;;4841624;29;20628;-79
2022/12/11 10:22:53;;;;;;;21.40;12.05;;;0.10;99.90;;;;;;4847632;29;20068;-78
2022/12/11 10:25:29;;;;;;;18.83;11.00;;;0.00;99.90;;;;;;4844244;29;20062;-78
2022/12/11 10:27:57;;;;;;;19.35;11.68;;;0.00;99.90;;;;;;4846364;29;20603;-78
2022/12/11 10:30:29;;;;;;;18.52;11.07;;;0.00;99.90;;;;;;4853469;29;20421;-78
2022/12/11 10:33:13;;;;;;;18.55;10.82;;;0.00;99.90;;;;;;4846622;29;20073;-78
2022/12/11 10:35:48;;;;;;;18.00;10.18;;;0.00;99.90;;;;;;4856190;29;20094;-78
2022/12/11 10:38:29;;;;;;;21.80;12.10;;;0.00;99.90;;;;;;4853251;29;20050;-78
2022/12/11 10:41:05;;;;;;;23.10;12.73;;;0.00;99.90;;;;;;4853947;29;20508;-79
2022/12/11 10:43:52;;;;;;;30.85;13.23;;;0.00;99.90;;;;;;4853446;29;20060;-78
2022/12/11 10:46:20;;;;;;;18.23;10.23;;;-0.10;99.90;;;;;;4841533;29;20477;-76
2022/12/11 10:48:58;;;;;;;22.33;11.45;;;-0.10;99.90;;;;;;4840822;29;20516;-79
2022/12/11 10:51:36;;;;;;;21.67;11.55;;;-0.10;99.90;;;;;;4840070;29;20057;-78
2022/12/11 10:54:15;;;;;;;17.40;10.02;;;-0.10;99.90;;;;;;4857456;29;20137;-78
2022/12/11 10:56:45;;;;;;;22.67;11.85;;;-0.20;99.90;;;;;;4843661;29;20046;-78
2022/12/11 10:59:41;;;;;;;22.92;12.48;;;-0.20;99.90;;;;;;4842755;29;20081;-78
2022/12/11 11:02:30;;;;;;;22.05;11.63;;;-0.20;99.90;;;;;;4841466;29;20046;-78
2022/12/11 11:05:09;;;;;;;21.33;11.38;;;-0.20;99.90;;;;;;4850728;29;20054;-78
2022/12/11 11:07:36;;;;;;;20.95;10.82;;;-0.20;99.90;;;;;;4845099;29;20050;-79
2022/12/11 11:10:16;;;;;;;19.00;10.40;;;-0.10;99.90;;;;;;4851338;29;20144;-79
2022/12/11 11:12:48;;;;;;;19.95;10.88;;;-0.10;99.90;;;;;;4844637;29;20061;-79
2022/12/11 11:15:24;;;;;;;19.25;10.15;;;-0.10;99.90;;;;;;4840915;29;20054;-78
2022/12/11 11:17:54;;;;;;;19.95;12.13;;;-0.10;99.90;;;;;;4848799;29;20133;-78
2022/12/11 11:20:28;;;;;;;20.15;11.10;;;-0.10;99.90;;;;;;4843904;29;20169;-78
2022/12/11 11:22:57;;;;;;;19.95;11.23;;;0.00;99.90;;;;;;4840990;29;20049;-79
2022/12/11 11:25:27;;;;;;;19.60;10.70;;;0.00;99.90;;;;;;4848132;29;20563;-78
2022/12/11 11:27:57;;;;;;;15.45;9.30;;;0.00;99.90;;;;;;4864501;29;20041;-80
2022/12/11 11:30:32;;;;;;;16.33;9.85;;;0.00;99.90;;;;;;4863675;29;20038;-80
2022/12/11 11:33:18;;;;;;;21.90;11.02;;;0.00;99.90;;;;;;4864861;29;20042;-79
2022/12/11 11:35:59;;;;;;;16.15;9.55;;;0.10;99.90;;;;;;4880390;29;20052;-80
2022/12/11 11:38:47;;;;;;;16.27;9.50;;;0.10;99.90;;;;;;4863392;29;20050;-78
2022/12/11 11:41:30;;;;;;;17.55;10.65;;;0.20;99.90;;;;;;4840755;29;20084;-78
2022/12/11 11:44:01;;;;;;;19.10;9.70;;;0.20;99.90;;;;;;4843285;29;20081;-79
2022/12/11 11:47:12;;;;;;;19.85;11.15;;;0.30;99.90;;;;;;4844443;29;20050;-78
2022/12/11 11:50:07;;;;;;;17.27;9.90;;;0.30;99.90;;;;;;4828945;29;20137;-78
2022/12/11 11:52:43;;;;;;;21.50;10.13;;;0.30;99.90;;;;;;4847440;29;20491;-78
2022/12/11 11:55:50;;;;;;;16.58;9.18;;;0.30;99.90;;;;;;4847472;29;20053;-79
2022/12/11 11:58:46;;;;;;;15.07;8.80;;;0.30;99.90;;;;;;4846722;29;20085;-79
2022/12/11 12:01:18;;;;;;;18.13;9.90;;;0.30;99.90;;;;;;4846100;29;20054;-78
2022/12/11 12:03:47;;;;;;;13.82;7.88;;;0.30;99.90;;;;;;4847011;29;20172;-78
2022/12/11 12:06:32;;;;;;;18.90;9.93;;;0.30;99.90;;;;;;4849117;29;20076;-78
2022/12/11 12:09:29;;;;;;;17.40;9.77;;;0.20;99.90;;;;;;4846833;29;20161;-78
2022/12/11 12:12:14;;;;;;;20.35;10.38;;;0.20;99.90;;;;;;4811353;29;20046;-79
2022/12/11 12:15:19;;;;;;;19.02;9.88;;;0.20;99.90;;;;;;4843784;29;20050;-80
2022/12/11 12:17:52;;;;;;;17.08;9.82;;;0.20;99.90;;;;;;4842553;29;20459;-77
2022/12/11 12:20:49;;;;;;;16.90;9.30;;;0.20;99.90;;;;;;4848063;29;20078;-80
2022/12/11 12:23:19;;;;;;;16.80;9.90;;;0.10;99.90;;;;;;4832534;29;20058;-77
2022/12/11 12:26:09;;;;;;;19.20;10.35;;;0.20;99.90;;;;;;4837028;29;20054;-77
2022/12/11 12:29:05;;;;;;;18.75;9.98;;;0.20;99.90;;;;;;4840830;29;20521;-78
2022/12/11 12:31:54;;;;;;;22.55;12.05;;;0.10;99.90;;;;;;4838046;29;20137;-78
2022/12/11 12:34:33;;;;;;;20.65;11.15;;;0.10;99.90;;;;;;4837463;29;20069;-78
2022/12/11 12:37:37;;;;;;;23.00;13.27;;;0.20;99.90;;;;;;4838283;29;20504;-77
2022/12/11 12:40:17;;;;;;;22.13;11.00;;;0.20;99.90;;;;;;4839515;29;20128;-78
2022/12/11 12:42:50;;;;;;;;;;;0.10;99.90;;;;;;4839838;29;20077;-77
2022/12/11 12:45:30;;;;;;;17.77;11.02;;;0.20;99.90;;;;;;4837844;29;20019;-77
2022/12/11 12:47:58;;;;;;;20.77;11.43;;;0.20;99.90;;;;;;4847844;29;20058;-78
2022/12/11 12:50:35;;;;;;;21.20;12.48;;;0.30;99.90;;;;;;4836917;29;20056;-78
2022/12/11 12:53:05;;;;;;;23.70;12.30;;;0.40;99.90;;;;;;4839414;29;20053;-78
2022/12/11 12:55:33;;;;;;;22.55;12.32;;;0.50;99.90;;;;;;4843779;29;20050;-77
2022/12/11 12:58:05;;;;;;;21.50;12.52;;;0.50;99.90;;;;;;4844532;29;20050;-76
2022/12/11 13:00:37;;;;;;;22.80;12.55;;;0.50;99.90;;;;;;4835949;29;20142;-79
2022/12/11 13:03:28;;;;;;;22.10;12.30;;;0.60;99.90;;;;;;4844908;29;20064;-78
2022/12/11 13:05:57;;;;;;;24.35;12.57;;;0.70;99.90;;;;;;4843930;29;20093;-78
2022/12/11 13:08:40;;;;;;;23.27;12.80;;;0.80;99.90;;;;;;4849235;29;20113;-79
2022/12/11 13:11:10;;;;;;;23.52;12.73;;;0.80;99.90;;;;;;4840350;29;20064;-79
2022/12/11 13:13:40;;;;;;;20.33;12.23;;;0.90;99.90;;;;;;4848034;29;20142;-81
2022/12/11 13:16:14;;;;;;;21.77;12.57;;;1.00;99.90;;;;;;4851769;29;20054;-78
2022/12/11 13:18:44;;;;;;;25.85;13.38;;;1.00;99.90;;;;;;4853066;29;20054;-78
2022/12/11 13:21:28;;;;;;;21.38;12.20;;;1.00;99.90;;;;;;4850700;29;20083;-80
2022/12/11 13:24:12;;;;;;;22.38;12.50;;;1.00;99.90;;;;;;4851601;29;20081;-78
2022/12/11 13:26:39;;;;;;;20.70;11.32;;;1.00;99.90;;;;;;4854524;29;20070;-80
2022/12/11 13:29:36;;;;;;;24.77;13.07;;;1.10;99.90;;;;;;4855807;29;20149;-80
2022/12/11 13:32:09;;;;;;;25.30;13.27;;;1.10;99.90;;;;;;4845609;29;20077;-78
2022/12/11 13:34:39;;;;;;;26.63;13.32;;;1.20;99.90;;;;;;4849215;29;20121;-80
2022/12/11 13:37:20;;;;;;;21.13;13.10;;;1.20;99.90;;;;;;4846480;29;21006;-79
2022/12/11 13:39:47;;;;;;;21.42;12.05;;;1.20;99.90;;;;;;4847831;29;20110;-79
2022/12/11 13:42:28;;;;;;;20.10;11.80;;;1.30;99.90;;;;;;4850717;29;20113;-77
2022/12/11 13:44:55;;;;;;;21.50;12.30;;;1.30;99.90;;;;;;4844352;29;20189;-77
2022/12/11 13:47:23;;;;;;;23.48;13.40;;;1.30;99.90;;;;;;4845438;29;20081;-78
2022/12/11 13:49:55;;;;;;;25.58;14.02;;;1.30;99.90;;;;;;4845840;29;20054;-79
2022/12/11 13:52:27;;;;;;;23.30;13.68;;;1.30;99.90;;;;;;4847511;29;20069;-79
2022/12/11 13:54:58;;;;;;;22.13;12.23;;;1.20;99.90;;;;;;4844826;29;20159;-78
2022/12/11 13:57:27;;;;;;;21.70;12.57;;;1.30;99.90;;;;;;4847124;29;20512;-79
2022/12/11 13:59:58;;;;;;;23.03;12.73;;;1.30;99.90;;;;;;4849515;29;20057;-79
2022/12/11 14:02:32;;;;;;;24.23;13.50;;;1.20;99.90;;;;;;4847093;29;20079;-77
2022/12/11 14:05:02;;;;;;;21.52;13.05;;;1.20;99.90;;;;;;4843064;29;20417;-78
2022/12/11 14:07:31;;;;;;;;;;;1.20;99.90;;;;;;4845796;29;20074;-78
2022/12/11 14:10:14;;;;;;;24.05;12.45;;;1.10;99.90;;;;;;4845938;29;20302;-78
2022/12/11 14:12:58;;;;;;;23.58;13.85;;;1.10;99.90;;;;;;4846642;29;20058;-77
2022/12/11 14:15:26;;;;;;;23.00;12.57;;;1.10;99.90;;;;;;4840578;29;20423;-77
2022/12/11 14:17:54;;;;;;;20.20;11.75;;;1.10;99.90;;;;;;4847686;29;20535;-78
2022/12/11 14:20:41;;;;;;;22.23;12.77;;;1.20;99.90;;;;;;4840386;29;20133;-81
2022/12/11 14:23:24;;;;;;;21.40;12.82;;;1.10;99.90;;;;;;4845907;29;20132;-77
2022/12/11 14:25:58;;;;;;;22.88;12.27;;;1.10;99.90;;;;;;4841623;29;20113;-80
2022/12/11 14:28:29;;;;;;;25.88;13.68;;;1.10;99.90;;;;;;4845211;29;20060;-78
2022/12/11 14:30:58;;;;;;;21.60;12.95;;;1.00;99.90;;;;;;4845590;29;20401;-78
2022/12/11 14:33:31;;;;;;;20.10;12.87;;;0.90;99.90;;;;;;4849154;29;20049;-79
2022/12/11 14:35:59;;;;;;;23.73;13.95;;;0.80;99.90;;;;;;4843619;29;20084;-78
2022/12/11 14:38:36;;;;;;;27.17;14.68;;;0.60;99.90;;;;;;4862338;29;20063;-80
2022/12/11 14:41:10;;;;;;;25.92;14.48;;;0.50;99.90;;;;;;4852182;29;20086;-79
2022/12/11 14:43:44;;;;;;;29.30;15.43;;;0.30;99.90;;;;;;4845951;29;20102;-78
2022/12/11 14:46:17;;;;;;;25.52;15.15;;;0.30;99.90;;;;;;4850154;29;20121;-79
2022/12/11 14:48:54;;;;;;;28.42;16.45;;;0.20;99.90;;;;;;4846949;29;20507;-79
2022/12/11 14:51:30;;;;;;;22.75;13.15;;;0.20;99.90;;;;;;4841342;29;20058;-79
2022/12/11 14:53:57;;;;;;;25.08;13.55;;;0.10;99.90;;;;;;4851367;29;20117;-78
2022/12/11 14:56:27;;;;;;;24.08;14.25;;;0.10;99.90;;;;;;4851256;29;20049;-80
2022/12/11 14:59:01;;;;;;;26.85;15.05;;;0.10;99.90;;;;;;4856201;29;20077;-78
2022/12/11 15:01:33;;;;;;;31.77;16.27;;;0.00;99.90;;;;;;4853459;29;20054;-77
2022/12/11 15:04:04;;;;;;;33.20;17.23;;;-0.10;99.90;;;;;;4846466;29;20090;-79
2022/12/11 15:06:32;;;;;;;;;;;-0.30;99.90;;;;;;4831174;29;20073;-79
2022/12/11 15:09:25;;;;;;;35.15;16.65;;;-0.30;99.90;;;;;;4863584;29;19983;-80
2022/12/11 15:11:55;;;;;;;38.58;18.90;;;-0.40;99.90;;;;;;4845352;29;20088;-78
2022/12/11 15:14:23;;;;;;;42.67;19.80;;;-0.40;99.90;;;;;;4849339;29;20130;-78
2022/12/11 15:16:53;;;;;;;41.75;23.13;;;-0.40;99.90;;;;;;4846949;29;20072;-77
2022/12/11 15:19:33;;;;;;;30.40;17.35;;;-0.50;99.90;;;;;;4848892;29;20069;-77
2022/12/11 15:22:05;;;;;;;43.22;19.95;;;-0.50;99.90;;;;;;4847982;29;20077;-77
2022/12/11 15:24:40;;;;;;;29.67;16.45;;;-0.60;99.90;;;;;;4839661;29;20114;-77
2022/12/11 15:27:23;;;;;;;28.15;15.55;;;-0.60;99.90;;;;;;4842313;29;20057;-78
2022/12/11 15:29:49;;;;;;;32.75;17.17;;;-0.60;99.90;;;;;;4847153;29;20520;-79
2022/12/11 15:32:17;;;;;;;25.75;15.73;;;-0.70;99.90;;;;;;4847660;29;20049;-78
2022/12/11 15:34:47;;;;;;;30.83;16.98;;;-0.70;99.90;;;;;;4846488;29;20080;-80
2022/12/11 15:37:19;;;;;;;32.30;17.83;;;-0.80;99.90;;;;;;4846090;29;20058;-76
2022/12/11 15:39:46;;;;;;;34.10;18.92;;;-0.80;99.90;;;;;;4844677;29;20057;-78
2022/12/11 15:42:17;;;;;;;32.17;17.42;;;-0.80;99.90;;;;;;4840143;29;20038;-78
2022/12/11 15:44:44;;;;;;;27.20;15.30;;;-0.80;99.90;;;;;;4846688;29;20062;-79
2022/12/11 15:47:12;;;;;;;29.92;15.63;;;-0.90;99.90;;;;;;4840568;29;20057;-77
2022/12/11 15:49:39;;;;;;;31.42;16.70;;;-0.90;99.90;;;;;;4844425;29;20045;-78
2022/12/11 15:52:07;;;;;;;32.20;15.80;;;-1.00;99.90;;;;;;4843986;29;20084;-79
2022/12/11 15:54:34;;;;;;;31.35;17.38;;;-1.00;99.90;;;;;;4844846;29;20130;-79
2022/12/11 15:57:05;;;;;;;27.83;15.57;;;-1.00;99.90;;;;;;4845694;29;20050;-80
2022/12/11 15:59:32;;;;;;;24.67;14.50;;;-1.10;99.90;;;;;;4848058;29;20049;-79
2022/12/11 16:01:58;;;;;;;30.63;15.02;;;-1.10;99.90;;;;;;4843189;29;20114;-80
2022/12/11 16:04:25;;;;;;;32.80;15.75;;;-1.20;99.90;;;;;;4848779;29;20050;-78
2022/12/11 16:06:52;;;;;;;27.13;15.18;;;-1.20;99.90;;;;;;4846214;29;20575;-79
2022/12/11 16:09:19;;;;;;;28.77;14.82;;;-1.30;99.90;;;;;;4845529;29;20125;-80
2022/12/11 16:11:46;;;;;;;30.40;16.02;;;-1.30;99.90;;;;;;4851774;29;20134;-80
2022/12/11 16:14:12;;;;;;;30.90;16.80;;;-1.30;99.90;;;;;;4844264;29;20054;-78
2022/12/11 16:16:39;;;;;;;32.22;17.27;;;-1.30;99.90;;;;;;4849375;29;20057;-79
2022/12/11 16:19:06;;;;;;;29.80;16.15;;;-1.30;99.90;;;;;;4840389;29;20129;-79
2022/12/11 16:21:32;;;;;;;30.38;15.52;;;-1.40;99.90;;;;;;4845963;29;20056;-78
2022/12/11 16:23:59;;;;;;;29.27;15.57;;;-1.40;99.90;;;;;;4844002;29;20049;-80
2022/12/11 16:26:26;;;;;;;28.48;15.57;;;-1.50;99.90;;;;;;4847843;29;20113;-78
2022/12/11 16:28:53;;;;;;;40.88;20.50;;;-1.50;99.90;;;;;;4858575;29;20503;-80
2022/12/11 16:31:19;;;;;;;50.65;27.80;;;-1.50;99.90;;;;;;4841576;29;20074;-78
2022/12/11 16:33:46;;;;;;;45.72;26.05;;;-1.60;99.90;;;;;;4847415;29;20092;-80
2022/12/11 16:36:15;;;;;;;67.60;37.10;;;-1.70;99.90;;;;;;4849483;29;20049;-80
2022/12/11 16:38:46;;;;;;;80.35;42.38;;;-1.70;99.90;;;;;;4852230;29;20486;-80
2022/12/11 16:41:19;;;;;;;91.10;43.60;;;-1.70;99.90;;;;;;4851544;29;20053;-80
2022/12/11 16:43:46;;;;;;;71.78;37.38;;;-1.70;99.90;;;;;;4852647;29;20053;-80
2022/12/11 16:46:19;;;;;;;66.43;35.28;;;-1.70;99.90;;;;;;4852392;29;20073;-81
2022/12/11 16:48:46;;;;;;;55.90;31.33;;;-1.70;99.90;;;;;;4848783;29;20181;-79
2022/12/11 16:51:13;;;;;;;57.25;31.33;;;-1.70;99.90;;;;;;4850460;29;20058;-79
2022/12/11 16:53:40;;;;;;;39.90;23.23;;;-1.70;99.90;;;;;;4844966;29;20488;-78
2022/12/11 16:56:07;;;;;;;34.75;19.67;;;-1.70;99.90;;;;;;4850922;29;20411;-79
2022/12/11 16:58:34;;;;;;;28.25;17.05;;;-1.70;99.90;;;;;;4846935;29;20510;-79
2022/12/11 17:01:10;;;;;;;31.38;16.75;;;-1.80;99.90;;;;;;4857898;29;20042;-80
2022/12/11 17:03:38;;;;;;;25.50;13.25;;;-1.80;99.90;;;;;;4867845;29;20034;-81
2022/12/11 17:06:06;;;;;;;17.13;9.40;;;-1.80;99.90;;;;;;4866887;29;20049;-80
2022/12/11 17:08:33;;;;;;;37.65;21.40;;;-1.80;99.90;;;;;;4867596;29;20065;-80
2022/12/11 17:11:03;;;;;;;28.63;16.40;;;-1.90;99.90;;;;;;4870285;29;20056;-79
2022/12/11 17:13:29;;;;;;;23.80;12.55;;;-2.00;99.90;;;;;;4865883;29;20053;-79
2022/12/11 17:16:10;;;;;;;19.15;10.77;;;-2.00;99.90;;;;;;4856292;29;20108;-79
2022/12/11 17:18:37;;;;;;;16.25;10.73;;;-1.90;99.90;;;;;;4854626;29;20385;-79
2022/12/11 17:21:10;;;;;;;18.05;10.68;;;-1.90;99.90;;;;;;4847317;29;20148;-80
2022/12/11 17:23:37;;;;;;;16.77;9.10;;;-1.90;99.90;;;;;;4852665;29;20088;-78
2022/12/11 17:26:07;;;;;;;18.98;8.23;;;-1.90;99.90;;;;;;4852702;29;20080;-78
2022/12/11 17:28:35;;;;;;;26.80;10.38;;;-1.90;99.90;;;;;;4852366;29;20053;-79
2022/12/11 17:31:06;;;;;;;24.35;10.35;;;-2.00;99.90;;;;;;4847565;29;20120;-78
2022/12/11 17:33:34;;;;;;;34.85;18.63;;;-2.00;99.90;;;;;;4852118;29;20054;-79
2022/12/11 17:36:03;;;;;;;13.00;7.20;;;-2.00;99.90;;;;;;4850638;29;20084;-79
2022/12/11 17:38:30;;;;;;;12.02;6.05;;;-2.00;99.90;;;;;;4843103;29;20089;-78
2022/12/11 17:40:57;;;;;;;19.10;7.53;;;-2.10;99.90;;;;;;4848729;29;20060;-77
2022/12/11 17:43:24;;;;;;;18.58;7.80;;;-2.10;99.90;;;;;;4850069;29;20056;-80
2022/12/11 17:45:51;;;;;;;15.65;8.40;;;-2.00;99.90;;;;;;4849210;29;20052;-80
2022/12/11 17:48:21;;;;;;;19.13;10.25;;;-2.10;99.90;;;;;;4852870;29;20080;-79
2022/12/11 17:50:49;;;;;;;19.83;10.77;;;-2.10;99.90;;;;;;4848664;29;20529;-78
2022/12/11 17:53:17;;;;;;;21.92;11.18;;;-2.10;99.90;;;;;;4854652;29;20049;-80
2022/12/11 17:55:45;;;;;;;15.50;9.52;;;-2.20;99.90;;;;;;4850685;29;20488;-79
2022/12/11 17:58:20;;;;;;;33.38;17.65;;;-2.20;99.90;;;;;;4855514;29;20046;-79
2022/12/11 18:00:50;;;;;;;25.50;13.82;;;-2.20;99.90;;;;;;4856213;29;20129;-78
2022/12/11 18:03:17;;;;;;;27.65;16.23;;;-2.30;99.90;;;;;;4848291;29;20066;-79
2022/12/11 18:05:50;;;;;;;19.77;11.05;;;-2.30;99.90;;;;;;4849771;29;20065;-79
2022/12/11 18:08:20;;;;;;;17.67;9.63;;;-2.30;99.90;;;;;;4852014;29;20058;-80
2022/12/11 18:10:47;;;;;;;16.25;8.77;;;-2.30;99.90;;;;;;4854451;29;20050;-79
2022/12/11 18:13:15;;;;;;;12.15;7.05;;;-2.30;99.90;;;;;;4851242;29;20057;-79
2022/12/11 18:15:42;;;;;;;13.85;7.55;;;-2.40;99.90;;;;;;4847647;29;20139;-79
2022/12/11 18:18:09;;;;;;;23.30;11.20;;;-2.40;99.90;;;;;;4848846;29;20060;-79
2022/12/11 18:20:37;;;;;;;20.08;10.45;;;-2.50;99.90;;;;;;4851216;29;20073;-78
2022/12/11 18:23:04;;;;;;;17.58;9.07;;;-2.40;99.90;;;;;;4847375;29;20042;-78
2022/12/11 18:25:31;;;;;;;14.82;8.07;;;-2.40;99.90;;;;;;4848178;29;20077;-79
2022/12/11 18:27:59;;;;;;;11.60;7.00;;;-2.40;99.90;;;;;;4842459;29;20070;-79
2022/12/11 18:30:26;;;;;;;11.35;7.25;;;-2.40;99.90;;;;;;4850012;29;20546;-79
2022/12/11 18:32:53;;;;;;;10.93;6.50;;;-2.40;99.90;;;;;;4851366;29;20125;-78
2022/12/11 18:35:20;;;;;;;11.35;5.85;;;-2.40;99.90;;;;;;4850326;29;20049;-79
2022/12/11 18:37:47;;;;;;;11.73;6.57;;;-2.40;99.90;;;;;;4834054;29;20046;-78
2022/12/11 18:40:13;;;;;;;10.63;5.78;;;-2.40;99.90;;;;;;4851841;29;20053;-79
2022/12/11 18:42:40;;;;;;;14.80;6.88;;;-2.30;99.90;;;;;;4855652;29;20106;-79
2022/12/11 18:45:07;;;;;;;21.63;11.15;;;-2.40;99.90;;;;;;4851469;29;20050;-80
2022/12/11 18:47:36;;;;;;;17.52;9.48;;;-2.30;99.90;;;;;;4840807;29;20069;-79
2022/12/11 18:50:04;;;;;;;22.67;11.35;;;-2.30;99.90;;;;;;4841511;29;20416;-78
2022/12/11 18:52:34;;;;;;;21.40;12.02;;;-2.30;99.90;;;;;;4851523;29;20054;-80
2022/12/11 18:55:00;;;;;;;14.98;8.73;;;-2.30;99.90;;;;;;4850778;29;20058;-80
2022/12/11 18:57:27;;;;;;;12.60;7.88;;;-2.30;99.90;;;;;;4849304;29;20531;-79
2022/12/11 18:59:54;;;;;;;10.52;6.82;;;-2.30;99.90;;;;;;4870107;24;20142;-79
2022/12/11 19:02:21;;;;;;;12.30;7.10;;;-2.30;99.90;;;;;;4849139;29;20046;-79
2022/12/11 19:04:48;;;;;;;13.05;6.78;;;-2.30;99.90;;;;;;4847541;29;20061;-78
2022/12/11 19:07:15;;;;;;;17.73;8.48;;;-2.30;99.90;;;;;;4839575;29;20066;-78
2022/12/11 19:09:41;;;;;;;11.48;7.15;;;-2.30;99.90;;;;;;4847725;29;20092;-80
2022/12/11 19:12:13;;;;;;;14.82;7.60;;;-2.30;99.90;;;;;;4842513;29;20057;-79
2022/12/11 19:14:40;;;;;;;15.10;8.07;;;-2.30;99.90;;;;;;4845069;29;20058;-79
2022/12/11 19:17:07;;;;;;;16.48;9.82;;;-2.30;99.90;;;;;;4836019;29;20423;-80
2022/12/11 19:19:34;;;;;;;13.73;8.38;;;-2.40;99.90;;;;;;4841059;29;20124;-80
2022/12/11 19:22:02;;;;;;;15.05;8.35;;;-2.50;99.90;;;;;;4844764;29;20047;-79
2022/12/11 19:24:29;;;;;;;16.05;8.38;;;-2.50;99.90;;;;;;4845349;29;20082;-80
2022/12/11 19:26:56;;;;;;;15.88;8.65;;;-2.50;99.90;;;;;;4838547;29;20097;-80
2022/12/11 19:29:31;;;;;;;19.45;9.52;;;-2.60;99.90;;;;;;4838749;29;20493;-80
2022/12/11 19:32:00;;;;;;;15.75;8.35;;;-2.60;99.90;;;;;;4842653;29;20085;-79
2022/12/11 19:34:27;;;;;;;16.98;10.10;;;-2.60;99.90;;;;;;4834541;29;20077;-79
2022/12/11 19:36:55;;;;;;;13.18;8.18;;;-2.70;99.90;;;;;;4840384;29;20073;-79
2022/12/11 19:39:22;;;;;;;16.52;8.65;;;-2.70;99.90;;;;;;4837248;29;20061;-79
2022/12/11 19:41:49;;;;;;;11.75;8.38;;;-2.70;99.90;;;;;;4848744;29;20113;-80
2022/12/11 19:44:16;;;;;;;17.70;8.32;;;-2.80;99.90;;;;;;4842202;29;20047;-80
2022/12/11 19:46:43;;;;;;;16.92;9.35;;;-2.80;99.90;;;;;;4840884;29;20070;-80
2022/12/11 19:49:10;;;;;;;14.65;9.45;;;-2.80;99.90;;;;;;4837616;29;20072;-79
2022/12/11 19:51:39;;;;;;;15.95;9.13;;;-2.80;99.90;;;;;;4843792;29;20120;-80
2022/12/11 19:54:10;;;;;;;16.88;9.63;;;-2.80;99.90;;;;;;4834910;29;20148;-78
2022/12/11 19:56:37;;;;;;;14.35;8.57;;;-2.80;99.90;;;;;;4839675;29;20054;-79
2022/12/11 19:59:07;;;;;;;16.52;10.07;;;-2.90;99.90;;;;;;4837531;29;20397;-79
2022/12/11 20:01:35;;;;;;;;;;;-2.90;99.90;;;;;;4841245;29;20077;-80
2022/12/11 20:04:05;;;;;;;17.77;10.75;;;-2.90;99.90;;;;;;4841000;29;19985;-80